Time;durP1;ratioP1;P1;durP2;ratioP2;P2;SDS_P1;SDS_P2;PMS_P1;PMS_P2;Temp;Humidity;BMP_temperature;BMP_pressure;BME280_temperature;BME280_humidity;BME280_pressure;Samples;Min_cycle;Max_cycle;Signal;HPM_P1;HPM_P2
2021/07/11 00:02:32;;;;;;;7.94;1.01;;;;;;;16.16;90.51;99290.06;1996562;79;29908;-77
2021/07/11 00:05:35;;;;;;;7.88;1.24;;;;;;;16.11;90.36;99291.94;1996960;81;20299;-77
2021/07/11 00:08:38;;;;;;;3.31;1.00;;;;;;;16.07;90.33;99293.78;1997011;81;20174;-77
2021/07/11 00:11:41;;;;;;;5.75;1.02;;;;;;;16.02;90.13;99293.94;1997303;81;20187;-77
2021/07/11 00:14:43;;;;;;;3.74;1.05;;;;;;;15.97;90.11;99297.56;1997601;81;20310;-77
2021/07/11 00:17:46;;;;;;;3.65;1.04;;;;;;;15.91;90.17;99302.97;1994872;78;20645;-77
2021/07/11 00:20:49;;;;;;;3.72;1.06;;;;;;;15.88;90.19;99300.44;1998180;81;20178;-77
2021/07/11 00:23:52;;;;;;;5.86;1.27;;;;;;;15.85;90.37;99303.16;1996910;81;20198;-77
2021/07/11 00:26:54;;;;;;;4.07;1.11;;;;;;;15.85;90.17;99306.63;1997483;81;20202;-76
2021/07/11 00:29:58;;;;;;;3.79;0.91;;;;;;;15.81;90.09;99299.75;1997570;81;20228;-77
2021/07/11 00:33:00;;;;;;;4.05;1.33;;;;;;;15.81;90.27;99293.66;1996273;79;20935;-77
2021/07/11 00:36:05;;;;;;;2.30;1.08;;;;;;;15.81;90.34;99298.91;1997370;81;20194;-77
2021/07/11 00:39:08;;;;;;;3.08;1.20;;;;;;;15.79;90.60;99303.28;1996706;81;20241;-77
2021/07/11 00:42:14;;;;;;;3.05;1.14;;;;;;;15.77;91.03;99303.34;1996850;81;20268;-77
2021/07/11 00:45:17;;;;;;;2.21;1.08;;;;;;;15.79;91.20;99309.38;1996025;81;20216;-76
2021/07/11 00:48:20;;;;;;;4.80;1.48;;;;;;;15.82;91.19;99311.97;1996379;81;20810;-77
2021/07/11 00:51:22;;;;;;;9.61;1.20;;;;;;;15.83;91.28;99312.81;1997600;81;20242;-76
2021/07/11 00:54:25;;;;;;;3.65;1.05;;;;;;;15.87;91.32;99317.06;1997250;81;20186;-77
2021/07/11 00:57:28;;;;;;;7.04;1.10;;;;;;;15.89;91.43;99315.25;1997468;81;20186;-77
2021/07/11 01:00:32;;;;;;;3.75;1.30;;;;;;;15.91;91.43;99318.69;1995972;78;20341;-77
2021/07/11 01:03:37;;;;;;;3.10;0.99;;;;;;;15.90;91.49;99319.59;2000692;81;20237;-77
2021/07/11 01:06:44;;;;;;;5.34;1.10;;;;;;;15.90;91.61;99315.22;1996198;81;20178;-76
2021/07/11 01:09:49;;;;;;;2.92;1.21;;;;;;;15.93;91.66;99314.25;1997064;81;20186;-76
2021/07/11 01:12:54;;;;;;;3.70;1.02;;;;;;;15.91;91.69;99313.44;1997858;81;20261;-76
2021/07/11 01:16:02;;;;;;;2.65;0.90;;;;;;;15.92;91.87;99318.63;1996630;81;20241;-76
2021/07/11 01:19:12;;;;;;;5.86;1.17;;;;;;;15.97;91.71;99321.13;1997676;78;20259;-76
2021/07/11 01:22:19;;;;;;;0.96;0.80;;;;;;;16.01;91.70;99322.78;1997181;81;20198;-77
2021/07/11 01:25:30;;;;;;;5.11;0.99;;;;;;;16.02;91.33;99334.97;1996835;81;20182;-77
2021/07/11 01:28:33;;;;;;;2.56;1.00;;;;;;;15.95;90.95;99336.03;1997372;81;20175;-77
2021/07/11 01:31:36;;;;;;;5.49;1.11;;;;;;;15.92;90.83;99331.72;1997492;81;20170;-76
2021/07/11 01:34:39;;;;;;;4.85;1.19;;;;;;;15.88;91.01;99330.09;1997633;79;20249;-77
2021/07/11 01:37:43;;;;;;;3.28;1.04;;;;;;;15.90;91.12;99330.06;1997679;81;20653;-77
2021/07/11 01:40:47;;;;;;;3.67;1.16;;;;;;;15.89;91.27;99329.19;1997911;81;20712;-76
2021/07/11 01:43:55;;;;;;;3.69;1.16;;;;;;;15.91;91.15;99335.25;1997919;81;20252;-77
2021/07/11 01:47:00;;;;;;;3.00;1.28;;;;;;;15.86;90.78;99334.53;1997288;78;21467;-76
2021/07/11 01:50:05;;;;;;;5.47;1.10;;;;;;;15.81;90.69;99340.78;1997535;81;20600;-76
2021/07/11 01:53:08;;;;;;;2.13;1.10;;;;;;;15.80;90.52;99341.66;1997486;81;20280;-77
2021/07/11 01:56:11;;;;;;;8.16;1.42;;;;;;;15.69;89.99;99342.81;1997970;81;20696;-76
2021/07/11 01:59:14;;;;;;;2.30;1.26;;;;;;;15.61;89.91;99344.75;1997776;81;20174;-77
2021/07/11 02:02:16;;;;;;;2.49;1.00;;;;;;;15.54;89.73;99337.94;1997790;79;21963;-76
2021/07/11 02:05:19;;;;;;;3.91;1.10;;;;;;;15.51;90.00;99345.88;1999593;81;20174;-77
2021/07/11 02:08:22;;;;;;;4.86;1.10;;;;;;;15.46;89.88;99347.75;1998976;81;20617;-77
2021/07/11 02:11:25;;;;;;;2.70;0.96;;;;;;;15.45;90.21;99348.66;1999122;81;20716;-76
2021/07/11 02:14:35;;;;;;;2.83;1.06;;;;;;;15.42;90.22;99339.09;1998347;81;20198;-76
2021/07/11 02:17:42;;;;;;;7.88;1.00;;;;;;;15.41;90.09;99340.00;1997497;79;22943;-77
2021/07/11 02:20:48;;;;;;;3.74;1.04;;;;;;;15.38;90.19;99345.31;1999117;81;20587;-76
2021/07/11 02:23:52;;;;;;;4.40;1.08;;;;;;;15.36;90.20;99344.50;1998394;81;20195;-77
2021/07/11 02:26:56;;;;;;;2.79;1.00;;;;;;;15.34;90.12;99342.81;1998480;81;20702;-76
2021/07/11 02:30:06;;;;;;;4.14;1.00;;;;;;;15.31;90.12;99345.50;1998954;81;20601;-77
2021/07/11 02:33:13;;;;;;;4.44;1.20;;;;;;;15.27;89.97;99346.50;1998705;78;22354;-77
2021/07/11 02:36:20;;;;;;;1.85;1.00;;;;;;;15.17;89.63;99344.97;1999766;81;20202;-77
2021/07/11 02:39:24;;;;;;;1.94;1.01;;;;;;;15.06;89.54;99342.59;1999040;81;21154;-77
2021/07/11 02:42:28;;;;;;;5.44;0.91;;;;;;;14.96;89.78;99346.34;1999111;81;20511;-77
2021/07/11 02:45:32;;;;;;;6.41;0.88;;;;;;;14.88;89.57;99353.47;1997911;78;20985;-77
2021/07/11 02:48:36;;;;;;;2.39;0.80;;;;;;;14.80;89.54;99353.66;1997506;81;20624;-76
2021/07/11 02:51:46;;;;;;;3.69;1.23;;;;;;;14.75;89.38;99358.16;1998529;81;20175;-77
2021/07/11 02:54:55;;;;;;;3.74;1.21;;;;;;;14.69;89.59;99363.47;1999474;81;20207;-77
2021/07/11 02:58:04;;;;;;;4.88;1.00;;;;;;;14.64;89.74;99357.50;1999118;81;20801;-77
2021/07/11 03:01:07;;;;;;;3.96;1.26;;;;;;;14.61;89.73;99357.56;1997744;78;22584;-76
2021/07/11 03:04:13;;;;;;;2.41;0.99;;;;;;;14.54;89.65;99375.13;1997629;81;20239;-77
2021/07/11 03:07:15;;;;;;;2.84;0.96;;;;;;;14.49;89.40;99371.75;1997604;81;20199;-76
2021/07/11 03:10:19;;;;;;;5.65;0.94;;;;;;;14.43;89.31;99380.59;1997170;81;20163;-77
2021/07/11 03:13:23;;;;;;;6.78;1.13;;;;;;;14.32;89.41;99368.59;1997271;81;20242;-77
2021/07/11 03:16:26;;;;;;;11.00;1.19;;;;;;;14.24;89.64;99371.34;1994472;79;20815;-76
2021/07/11 03:19:30;;;;;;;3.24;0.86;;;;;;;14.15;90.09;99372.38;1997468;81;20216;-76
2021/07/11 03:22:35;;;;;;;2.64;0.93;;;;;;;14.11;90.53;99375.94;1996841;81;20977;-77
2021/07/11 03:25:38;;;;;;;2.36;1.00;;;;;;;14.11;90.60;99373.34;1997707;81;20709;-76
2021/07/11 03:28:44;;;;;;;4.30;0.99;;;;;;;14.13;90.49;99373.31;1997462;81;20174;-77
2021/07/11 03:31:47;;;;;;;3.74;1.10;;;;;;;14.13;90.42;99383.75;1995981;78;21572;-77
2021/07/11 03:34:51;;;;;;;5.14;0.93;;;;;;;14.10;90.51;99378.59;1997678;81;20192;-76
2021/07/11 03:38:58;;;;;;;5.41;0.80;;;;;;;14.11;90.59;99375.94;1996896;81;20653;-76
2021/07/11 03:42:08;;;;;;;2.71;0.86;;;;;;;14.13;90.41;99376.78;1996453;81;20565;-76
2021/07/11 03:45:19;;;;;;;3.95;0.99;;;;;;;14.13;90.45;99365.47;1995768;78;20560;-76
2021/07/11 03:48:25;;;;;;;3.22;0.88;;;;;;;14.14;90.38;99364.56;1995979;81;20182;-76
2021/07/11 03:51:37;;;;;;;4.90;1.83;;;;;;;14.13;90.22;99368.94;1996324;81;20241;-77
2021/07/11 03:54:43;;;;;;;1.92;0.88;;;;;;;14.14;90.38;99375.88;1996468;81;20174;-77
2021/07/11 03:57:53;;;;;;;4.90;0.93;;;;;;;14.15;90.58;99361.94;1996921;81;20707;-76
2021/07/11 04:00:56;;;;;;;3.97;1.20;;;;;;;14.19;90.60;99373.22;1993901;78;23203;-76
2021/07/11 04:04:13;;;;;;;4.21;1.11;;;;;;;14.22;90.51;99378.38;1996791;81;20216;-76
2021/07/11 04:07:24;;;;;;;7.15;1.13;;;;;;;14.25;90.40;99373.06;1996328;81;20300;-76
2021/07/11 04:10:29;;;;;;;5.29;1.31;;;;;;;14.25;90.15;99375.69;1995868;81;20200;-76
2021/07/11 04:13:38;;;;;;;5.55;1.11;;;;;;;14.26;89.82;99379.16;1996390;81;20587;-76
2021/07/11 04:17:04;;;;;;;4.79;2.04;;;;;;;14.23;89.93;99374.88;1995169;78;25992;-76
2021/07/11 04:20:15;;;;;;;7.88;1.36;;;;;;;14.27;89.96;99370.44;1996391;81;20372;-76
2021/07/11 04:23:17;;;;;;;6.35;1.00;;;;;;;14.29;90.08;99366.03;1996485;81;20255;-76
2021/07/11 04:26:34;;;;;;;4.29;1.10;;;;;;;14.30;90.20;99368.63;1995568;81;20186;-76
2021/07/11 04:29:36;;;;;;;2.35;0.90;;;;;;;14.33;90.51;99373.78;1995776;81;20207;-76
2021/07/11 04:32:45;;;;;;;5.06;1.00;;;;;;;14.37;90.50;99372.00;1994915;78;20637;-75
2021/07/11 04:36:01;;;;;;;4.95;1.65;;;;;;;14.42;90.47;99375.34;1991163;81;20272;-76
2021/07/11 04:39:03;;;;;;;2.91;1.02;;;;;;;14.46;90.30;99383.13;1987540;81;20204;-77
2021/07/11 04:42:12;;;;;;;;;;;;;;;14.52;90.29;99392.59;1986356;81;20187;-76
2021/07/11 04:45:16;;;;;;;2.92;1.16;;;;;;;14.58;90.12;99376.81;1990299;81;20180;-76
2021/07/11 04:48:26;;;;;;;3.56;1.00;;;;;;;14.64;90.31;99386.25;1988322;81;20204;-76
2021/07/11 04:51:29;;;;;;;2.34;1.00;;;;;;;14.71;90.37;99386.06;1987804;81;20789;-77
2021/07/11 04:54:37;;;;;;;4.20;1.00;;;;;;;14.77;90.41;99385.09;1992455;81;20195;-76
2021/07/11 04:57:40;;;;;;;5.46;1.30;;;;;;;14.81;90.40;99386.75;1990704;81;20167;-76
2021/07/11 05:00:49;;;;;;;3.04;1.30;;;;;;;14.85;90.08;99391.00;1988485;79;22688;-76
2021/07/11 05:03:58;;;;;;;8.59;1.19;;;;;;;14.90;89.60;99394.41;1987874;81;20260;-77
2021/07/11 05:07:01;;;;;;;5.09;1.02;;;;;;;14.92;89.32;99397.84;1990919;81;20235;-75
2021/07/11 05:10:11;;;;;;;4.74;1.49;;;;;;;14.97;89.10;99388.16;1989038;81;20343;-75
2021/07/11 05:13:20;;;;;;;3.45;0.99;;;;;;;15.03;89.08;99390.63;1991480;81;20244;-76
2021/07/11 05:16:23;;;;;;;7.69;1.19;;;;;;;15.10;89.19;99392.22;1990020;78;20784;-76
2021/07/11 05:19:32;;;;;;;5.36;1.70;;;;;;;15.18;88.96;99396.41;1991116;81;20932;-75
2021/07/11 05:22:35;;;;;;;5.41;1.20;;;;;;;15.25;88.47;99393.59;1990451;81;20257;-76
2021/07/11 05:25:44;;;;;;;7.63;1.20;;;;;;;15.27;88.18;99411.91;1986048;81;20196;-76
2021/07/11 05:28:47;;;;;;;3.84;1.15;;;;;;;15.23;87.95;99415.44;1985918;81;20957;-76
2021/07/11 05:31:55;;;;;;;2.64;1.34;;;;;;;15.20;87.95;99418.16;1988867;78;27630;-76
2021/07/11 05:35:05;;;;;;;3.51;1.10;;;;;;;15.22;87.79;99416.34;1990602;81;20220;-76
2021/07/11 05:38:21;;;;;;;5.30;1.20;;;;;;;15.21;88.06;99417.25;1990718;81;20179;-76
2021/07/11 05:41:23;;;;;;;8.07;1.48;;;;;;;15.24;88.00;99409.31;1990545;81;20276;-76
2021/07/11 05:44:32;;;;;;;5.95;1.35;;;;;;;15.54;87.29;99411.22;1991376;81;20199;-76
2021/07/11 05:47:35;;;;;;;5.82;1.30;;;;;;;16.32;84.87;99414.47;1988129;78;21230;-76
2021/07/11 05:50:43;;;;;;;4.82;1.20;;;;;;;16.98;82.82;99412.63;1990697;81;20179;-75
2021/07/11 05:53:46;;;;;;;4.70;1.42;;;;;;;17.55;80.45;99415.19;1988487;81;20249;-75
2021/07/11 05:56:56;;;;;;;6.21;1.29;;;;;;;17.22;79.55;99414.50;1990936;81;20198;-74
2021/07/11 06:00:11;;;;;;;2.29;1.00;;;;;;;16.92;79.68;99418.94;1990707;81;20700;-74
2021/07/11 06:03:13;;;;;;;7.96;1.75;;;;;;;17.55;78.42;99409.94;1990350;78;20954;-74
2021/07/11 06:06:23;;;;;;;6.64;1.17;;;;;;;17.55;78.44;99419.59;1990764;81;20230;-74
2021/07/11 06:09:27;;;;;;;7.10;1.34;;;;;;;17.97;76.75;99417.38;1989885;81;20706;-74
2021/07/11 06:12:35;;;;;;;4.94;1.16;;;;;;;18.07;76.35;99411.72;1990766;81;20199;-74
2021/07/11 06:15:44;;;;;;;4.56;1.30;;;;;;;18.85;73.13;99413.31;1990665;79;21547;-74
2021/07/11 06:18:47;;;;;;;4.57;1.00;;;;;;;19.46;71.72;99424.13;1991907;81;20280;-74
2021/07/11 06:21:56;;;;;;;7.82;1.27;;;;;;;20.10;70.08;99430.22;1991917;81;20191;-74
2021/07/11 06:25:06;;;;;;;5.05;0.96;;;;;;;19.97;69.90;99425.56;1992418;81;21208;-74
2021/07/11 06:28:15;;;;;;;5.01;1.01;;;;;;;19.71;70.16;99434.53;1991695;81;20195;-74
2021/07/11 06:31:18;;;;;;;4.72;1.06;;;;;;;19.39;70.80;99441.06;1989088;78;21357;-73
2021/07/11 06:34:41;;;;;;;2.36;0.98;;;;;;;19.12;71.24;99440.38;1992415;81;20222;-74
2021/07/11 06:37:51;;;;;;;8.16;0.93;;;;;;;18.99;72.13;99445.25;1996092;81;20713;-74
2021/07/11 06:41:01;;;;;;;4.45;1.00;;;;;;;19.07;71.81;99442.34;1995675;81;20224;-75
2021/07/11 06:44:03;;;;;;;2.86;1.10;;;;;;;18.80;72.14;99433.69;1994851;81;20275;-75
2021/07/11 06:47:12;;;;;;;3.47;1.15;;;;;;;18.62;72.98;99443.94;1994820;79;24865;-74
2021/07/11 06:50:22;;;;;;;3.28;1.30;;;;;;;18.44;73.99;99447.22;1994859;81;20244;-74
2021/07/11 06:53:24;;;;;;;3.00;1.10;;;;;;;18.31;74.41;99441.56;1995620;81;20198;-75
2021/07/11 06:56:34;;;;;;;4.31;1.27;;;;;;;18.21;74.46;99442.78;1995418;81;20178;-74
2021/07/11 06:59:43;;;;;;;6.82;1.25;;;;;;;18.20;75.35;99446.31;1993079;81;20223;-75
2021/07/11 07:02:46;;;;;;;2.92;1.13;;;;;;;18.24;75.67;99450.56;1995826;78;21189;-75
2021/07/11 07:05:55;;;;;;;5.74;1.20;;;;;;;18.24;75.36;99447.94;1996493;81;20194;-75
2021/07/11 07:08:58;;;;;;;1.89;1.17;;;;;;;18.31;74.33;99445.94;1996720;81;20347;-75
2021/07/11 07:12:08;;;;;;;6.06;1.17;;;;;;;18.27;73.79;99449.59;1996849;81;20182;-75
2021/07/11 07:15:12;;;;;;;5.43;1.51;;;;;;;18.29;74.13;99451.25;1996268;81;20202;-77
2021/07/11 07:18:21;;;;;;;3.71;1.46;;;;;;;18.32;73.94;99452.94;1995882;81;20209;-78
2021/07/11 07:21:30;;;;;;;3.13;1.25;;;;;;;18.31;73.53;99452.09;1994609;81;20310;-77
2021/07/11 07:24:33;;;;;;;2.39;1.00;;;;;;;18.36;73.87;99447.50;1996698;81;20246;-77
2021/07/11 07:27:44;;;;;;;2.79;0.93;;;;;;;18.46;73.94;99450.66;1997960;81;20331;-78
2021/07/11 07:30:47;;;;;;;5.22;1.10;;;;;;;18.57;74.65;99448.50;1996471;78;30816;-78
2021/07/11 07:33:51;;;;;;;5.36;1.13;;;;;;;18.57;73.99;99439.78;2000142;81;20207;-77
2021/07/11 07:36:55;;;;;;;3.34;1.20;;;;;;;19.01;73.62;99439.00;1998686;81;20166;-78
2021/07/11 07:39:59;;;;;;;3.10;1.13;;;;;;;19.86;70.74;99439.19;1998868;81;20194;-77
2021/07/11 07:43:02;;;;;;;3.91;0.99;;;;;;;20.63;67.63;99434.97;2001563;81;20232;-78
2021/07/11 07:46:04;;;;;;;4.15;1.10;;;;;;;21.36;65.43;99444.84;1999059;78;20198;-78
2021/07/11 07:49:07;;;;;;;3.13;1.00;;;;;;;22.08;63.03;99443.09;2000037;81;20227;-78
2021/07/11 07:52:10;;;;;;;1.24;0.86;;;;;;;22.21;60.41;99441.56;1999729;81;20178;-78
2021/07/11 07:55:13;;;;;;;1.84;0.90;;;;;;;21.87;60.76;99455.56;1997936;81;20186;-78
2021/07/11 07:58:15;;;;;;;2.03;0.80;;;;;;;21.42;61.87;99444.53;2000862;81;20223;-76
2021/07/11 08:01:21;;;;;;;2.60;0.90;;;;;;;20.93;62.50;99451.22;2004221;79;24493;-81
2021/07/11 08:04:25;;;;;;;3.91;1.25;;;;;;;20.73;65.39;99452.13;2007769;71;20179;-80
2021/07/11 08:07:33;;;;;;;2.34;1.04;;;;;;;20.95;65.90;99453.78;2002957;81;20260;-81
2021/07/11 08:10:42;;;;;;;2.20;1.07;;;;;;;20.86;64.33;99454.22;1997893;81;20238;-79
2021/07/11 08:13:46;;;;;;;4.86;1.11;;;;;;;20.52;63.55;99453.09;2003625;81;20197;-83
2021/07/11 08:16:52;;;;;;;3.75;1.16;;;;;;;20.14;65.51;99460.00;2004009;81;20190;-82
2021/07/11 08:20:27;;;;;;;2.89;1.11;;;;;;;19.82;66.66;99456.06;2004423;81;20199;-83
2021/07/11 08:23:41;;;;;;;6.68;1.38;;;;;;;19.68;67.32;99453.09;2002945;81;20192;-83
2021/07/11 08:30:33;;;;;;;1.75;1.01;;;;;;;20.81;66.49;99460.53;2009464;70;20082;-81
2021/07/11 08:37:07;;;;;;;3.35;1.02;;;;;;;20.78;64.21;99452.75;2044689;70;20190;-81
2021/07/11 08:47:32;;;;;;;;;;;;;;;21.74;63.27;99444.78;1922622;70;8253534;-83
2021/07/11 08:54:02;;;;;;;4.25;1.05;;;;;;;21.81;59.46;99459.38;2028705;70;20165;-85
2021/07/11 08:57:11;;;;;;;3.17;1.24;;;;;;;21.50;60.54;99462.66;2019491;80;20272;-85
2021/07/11 09:00:55;;;;;;;0.90;0.90;;;;;;;21.45;60.27;99466.47;2061230;70;20230;-83
2021/07/11 09:11:02;;;;;;;0.80;0.80;;;;;;;22.14;60.30;99475.41;2039452;70;20195;-86
2021/07/11 09:14:25;;;;;;;1.91;0.88;;;;;;;21.73;60.03;99473.94;2172237;70;20229;-86
2021/07/11 09:24:33;;;;;;;1.86;0.90;;;;;;;21.28;63.50;99476.03;2103251;70;20178;-85
2021/07/11 09:27:43;;;;;;;1.45;1.02;;;;;;;21.64;62.87;99480.50;2019593;70;20162;-85
2021/07/11 09:34:33;;;;;;;1.51;0.98;;;;;;;21.98;61.05;99482.34;2184832;70;20296;-85
2021/07/11 09:52:12;;;;;;;2.00;0.80;;;;;;;22.92;55.84;99488.09;2022985;70;20210;-75
2021/07/11 09:55:25;;;;;;;1.26;0.90;;;;;;;23.14;57.15;99492.25;2003770;81;20184;-80
2021/07/11 09:58:32;;;;;;;1.55;1.00;;;;;;;23.22;56.63;99482.09;2009305;80;20235;-75
2021/07/11 10:01:45;;;;;;;2.01;0.94;;;;;;;23.29;56.29;99483.47;1994685;81;1834967;-84
2021/07/11 10:04:55;;;;;;;2.83;1.30;;;;;;;23.36;54.99;99484.84;2009664;81;20288;-85
2021/07/11 10:07:59;;;;;;;2.83;1.00;;;;;;;23.37;54.42;99483.06;2014483;81;20213;-84
2021/07/11 10:11:05;;;;;;;3.34;0.81;;;;;;;23.44;54.60;99476.47;2012804;81;20194;-84
2021/07/11 10:14:08;;;;;;;1.40;0.80;;;;;;;23.45;53.47;99476.38;2012315;81;20234;-83
2021/07/11 10:17:15;;;;;;;2.78;1.10;;;;;;;23.43;53.78;99482.69;2014022;78;81283;-82
2021/07/11 10:20:36;;;;;;;1.67;1.00;;;;;;;23.66;54.44;99482.28;2016912;80;20324;-84
2021/07/11 10:23:41;;;;;;;1.60;0.98;;;;;;;23.89;52.79;99478.34;2017830;81;20318;-85
2021/07/11 10:26:45;;;;;;;1.38;0.79;;;;;;;24.35;54.17;99481.84;2013381;81;20188;-83
2021/07/11 10:29:51;;;;;;;2.06;0.90;;;;;;;24.67;51.07;99473.75;2014354;81;20177;-80
2021/07/11 10:33:04;;;;;;;2.99;0.90;;;;;;;24.71;51.72;99473.44;2013937;78;96227;-82
2021/07/11 10:36:08;;;;;;;1.73;0.82;;;;;;;24.71;50.80;99468.13;2017558;81;20169;-83
2021/07/11 10:39:12;;;;;;;0.90;0.71;;;;;;;24.93;50.65;99469.47;2014584;81;20196;-83
2021/07/11 11:00:30;;;;;;;0.60;0.60;;;;;;;24.88;49.84;99461.78;2026570;70;20138;-84
2021/07/11 11:14:01;;;;;;;1.08;0.60;;;;;;;25.04;47.57;99439.63;2009486;71;20346;-83
2021/07/11 11:20:16;;;;;;;2.09;0.60;;;;;;;25.19;47.35;99428.88;2084273;70;20210;-83
2021/07/11 11:34:18;;;;;;;3.26;1.02;;;;;;;25.40;45.93;99417.81;2072058;70;20162;-81
2021/07/11 11:37:21;;;;;;;2.29;0.60;;;;;;;25.48;47.98;99420.81;2003621;81;21167;-79
2021/07/11 11:40:25;;;;;;;4.34;0.56;;;;;;;25.79;46.97;99423.19;2002649;81;20192;-78
2021/07/11 11:43:28;;;;;;;1.70;0.60;;;;;;;26.12;47.28;99413.91;2012649;81;20206;-79
2021/07/11 11:46:31;;;;;;;0.93;0.50;;;;;;;26.19;46.07;99407.19;2005426;81;20195;-80
2021/07/11 11:49:34;;;;;;;1.58;0.70;;;;;;;26.49;47.25;99407.78;1998914;81;20236;-72
2021/07/11 11:52:36;;;;;;;1.29;0.50;;;;;;;26.86;46.37;99402.53;1997458;81;20715;-75
2021/07/11 11:55:49;;;;;;;2.21;0.60;;;;;;;26.26;44.14;99404.97;1998324;81;20187;-76
2021/07/11 11:59:03;;;;;;;0.64;0.50;;;;;;;25.62;46.69;99415.44;1998677;81;20231;-80
2021/07/11 12:02:09;;;;;;;1.61;0.60;;;;;;;25.60;47.37;99412.03;2001906;78;21138;-77
2021/07/11 12:05:15;;;;;;;1.92;0.56;;;;;;;25.74;46.88;99413.81;2003563;80;20178;-78
2021/07/11 12:08:19;;;;;;;1.25;0.57;;;;;;;25.82;45.01;99409.69;2003946;81;20174;-77
2021/07/11 12:11:21;;;;;;;4.51;0.50;;;;;;;26.09;45.96;99408.78;2002757;81;20174;-78
2021/07/11 12:14:24;;;;;;;3.97;0.60;;;;;;;26.24;44.23;99404.25;2002963;81;20215;-79
2021/07/11 12:17:32;;;;;;;1.66;0.44;;;;;;;26.38;43.68;99399.66;2002239;78;56985;-78
2021/07/11 12:20:38;;;;;;;0.46;0.46;;;;;;;26.67;44.81;99394.13;1998456;81;20294;-77
2021/07/11 12:23:40;;;;;;;1.63;0.40;;;;;;;26.92;44.15;99380.75;2003410;81;20246;-78
2021/07/11 12:26:45;;;;;;;1.11;0.50;;;;;;;26.40;43.88;99383.63;2002931;81;20267;-78
2021/07/11 12:29:48;;;;;;;0.57;0.36;;;;;;;25.70;43.76;99383.06;2001513;81;20820;-77
2021/07/11 12:32:53;;;;;;;0.40;0.40;;;;;;;25.26;44.63;99384.13;2002681;79;24231;-77
2021/07/11 12:35:59;;;;;;;0.69;0.41;;;;;;;24.97;45.71;99383.34;2002210;81;20869;-77
2021/07/11 12:39:15;;;;;;;1.89;0.40;;;;;;;25.03;47.51;99379.44;2003756;81;20166;-77
2021/07/11 12:42:25;;;;;;;0.60;0.40;;;;;;;25.32;46.30;99367.81;2002209;81;20173;-77
2021/07/11 12:45:27;;;;;;;2.56;0.52;;;;;;;25.87;47.49;99377.47;2004070;78;22527;-78
2021/07/11 12:48:42;;;;;;;1.84;0.30;;;;;;;26.25;43.72;99372.19;2003842;81;20190;-78
2021/07/11 12:51:51;;;;;;;0.52;0.40;;;;;;;26.51;44.00;99375.72;2003791;81;20319;-77
2021/07/11 12:54:54;;;;;;;1.69;0.36;;;;;;;26.59;42.62;99377.84;2003190;81;20177;-79
2021/07/11 12:57:56;;;;;;;0.50;0.47;;;;;;;26.92;44.19;99369.25;2001704;81;20235;-79
2021/07/11 13:01:05;;;;;;;0.71;0.50;;;;;;;26.94;42.34;99372.69;2001170;78;22138;-78
2021/07/11 13:04:08;;;;;;;3.35;0.50;;;;;;;26.82;41.41;99368.22;2004114;81;20568;-78
2021/07/11 13:07:12;;;;;;;2.38;0.40;;;;;;;26.79;43.56;99364.81;2003204;81;20186;-77
2021/07/11 13:10:15;;;;;;;5.05;0.32;;;;;;;26.92;39.65;99367.44;2002541;80;20242;-76
2021/07/11 13:13:17;;;;;;;0.30;0.30;;;;;;;26.93;42.44;99358.50;2001979;81;20173;-77
2021/07/11 13:16:20;;;;;;;2.06;0.40;;;;;;;26.80;41.80;99357.69;2001577;78;23147;-79
2021/07/11 14:17:05;;;;;;;5.76;0.84;;;;;;;24.15;48.62;99338.84;2019171;71;107819;-82
2021/07/11 14:23:19;;;;;;;0.50;0.40;;;;;;;24.37;50.12;99330.44;2165079;70;20203;-85
2021/07/11 14:26:22;;;;;;;0.41;0.39;;;;;;;24.52;50.45;99329.50;2111829;70;20152;-84
2021/07/11 14:29:25;;;;;;;7.40;0.50;;;;;;;24.54;46.44;99324.94;2020067;81;20115;-83
2021/07/11 14:38:58;;;;;;;2.19;0.50;;;;;;;24.80;47.17;99303.88;2068571;70;20182;-78
2021/07/11 14:42:01;;;;;;;0.49;0.30;;;;;;;24.77;46.37;99307.53;2002660;81;20166;-80
2021/07/11 14:45:04;;;;;;;0.40;0.39;;;;;;;25.09;47.55;99304.66;2003131;81;20268;-79
2021/07/11 14:48:07;;;;;;;1.13;0.40;;;;;;;25.04;44.14;99302.31;2000686;81;20182;-77
2021/07/11 14:51:10;;;;;;;2.49;0.50;;;;;;;24.96;45.80;99304.59;2002427;81;20236;-79
2021/07/11 14:54:13;;;;;;;0.77;0.40;;;;;;;25.07;45.51;99296.78;2001167;81;20240;-79
2021/07/11 14:57:15;;;;;;;0.52;0.31;;;;;;;25.28;45.61;99286.53;2001767;81;20212;-79
2021/07/11 15:00:18;;;;;;;0.29;0.29;;;;;;;25.23;43.47;99283.34;2001198;81;20184;-79
2021/07/11 15:03:21;;;;;;;1.01;0.40;;;;;;;25.09;45.13;99288.69;2004719;78;22778;-79
2021/07/11 15:06:23;;;;;;;1.81;0.30;;;;;;;24.87;43.74;99281.25;2005420;81;20218;-78
2021/07/11 15:09:26;;;;;;;0.54;0.30;;;;;;;24.67;45.76;99275.44;2005879;81;20359;-79
2021/07/11 15:12:29;;;;;;;1.09;0.30;;;;;;;24.60;47.77;99271.47;2006543;81;20194;-79
2021/07/11 15:15:31;;;;;;;1.91;0.40;;;;;;;24.52;48.44;99273.75;2005726;78;32763;-79
2021/07/11 15:18:34;;;;;;;0.54;0.40;;;;;;;24.45;50.41;99277.75;2006909;81;20190;-79
2021/07/11 15:21:36;;;;;;;1.89;0.40;;;;;;;24.35;50.03;99268.66;2006312;81;20170;-79
2021/07/11 15:24:39;;;;;;;1.01;0.46;;;;;;;24.32;49.51;99266.19;2005885;81;20207;-78
2021/07/11 15:27:42;;;;;;;0.96;0.40;;;;;;;24.22;49.16;99259.72;2006961;81;20165;-79
2021/07/11 15:30:44;;;;;;;0.35;0.35;;;;;;;24.12;50.10;99256.78;2005516;78;22838;-79
2021/07/11 15:33:47;;;;;;;1.44;0.34;;;;;;;24.15;49.31;99255.75;2005631;81;20227;-79
2021/07/11 15:36:50;;;;;;;0.99;0.43;;;;;;;24.16;48.15;99249.50;2005773;80;20203;-79
2021/07/11 15:39:52;;;;;;;0.66;0.40;;;;;;;24.16;49.91;99266.25;2009655;80;20195;-78
2021/07/11 15:42:55;;;;;;;0.59;0.43;;;;;;;24.14;50.50;99262.00;2004158;81;20195;-78
2021/07/11 15:45:58;;;;;;;1.27;0.40;;;;;;;24.09;52.35;99247.22;2002251;78;20643;-77
2021/07/11 15:49:02;;;;;;;0.50;0.50;;;;;;;24.09;51.58;99247.22;1997834;81;20234;-78
2021/07/11 15:52:05;;;;;;;0.40;0.40;;;;;;;24.06;51.29;99238.59;1999816;81;20248;-78
2021/07/11 15:55:10;;;;;;;1.49;0.40;;;;;;;24.02;50.50;99237.06;2000412;81;20218;-77
2021/07/11 15:58:13;;;;;;;0.50;0.40;;;;;;;24.03;52.15;99236.97;1999667;81;20173;-78
2021/07/11 16:01:16;;;;;;;0.36;0.34;;;;;;;24.04;52.78;99236.03;2000280;78;20769;-78
2021/07/11 16:04:19;;;;;;;0.47;0.40;;;;;;;24.18;53.00;99223.72;2003506;81;20178;-78
2021/07/11 16:07:21;;;;;;;1.75;0.50;;;;;;;24.31;51.54;99225.53;2003624;81;20195;-78
2021/07/11 16:10:25;;;;;;;0.82;0.50;;;;;;;24.41;52.45;99223.13;2004828;81;20173;-78
2021/07/11 16:13:28;;;;;;;1.84;0.51;;;;;;;24.70;51.89;99216.81;2002990;81;20482;-77
2021/07/11 16:16:30;;;;;;;0.30;0.30;;;;;;;24.71;49.75;99221.16;2002291;78;21015;-78
2021/07/11 16:19:34;;;;;;;0.99;0.55;;;;;;;24.68;48.41;99212.53;1999596;81;20178;-78
2021/07/11 16:22:37;;;;;;;0.81;0.30;;;;;;;24.73;48.45;99207.78;2000590;81;20777;-78
2021/07/11 16:25:41;;;;;;;1.36;0.30;;;;;;;24.73;46.22;99207.78;2000444;81;20202;-78
2021/07/11 16:28:43;;;;;;;1.21;0.46;;;;;;;24.61;50.57;99205.94;2000548;81;20276;-78
2021/07/11 16:31:46;;;;;;;1.25;0.30;;;;;;;24.56;51.07;99202.72;2000588;78;55657;-78
2021/07/11 16:34:49;;;;;;;0.57;0.30;;;;;;;24.73;50.20;99194.50;2006026;80;20239;-78
2021/07/11 16:37:51;;;;;;;0.20;0.20;;;;;;;24.92;49.62;99189.69;2004608;81;20229;-77
2021/07/11 16:40:54;;;;;;;1.05;0.24;;;;;;;25.05;48.72;99183.59;2004819;81;20197;-78
2021/07/11 16:43:57;;;;;;;1.34;0.69;;;;;;;24.98;45.75;99180.47;2004625;80;20211;-77
2021/07/11 16:46:59;;;;;;;0.30;0.30;;;;;;;24.79;44.48;99178.19;2001118;78;21923;-78
2021/07/11 16:50:06;;;;;;;0.30;0.30;;;;;;;24.56;47.39;99179.66;2000336;81;20194;-78
2021/07/11 16:53:08;;;;;;;0.63;0.30;;;;;;;24.20;47.52;99177.53;2000268;81;20646;-77
2021/07/11 16:56:11;;;;;;;1.20;0.30;;;;;;;23.92;49.84;99182.91;1999418;81;20167;-77
2021/07/11 16:59:14;;;;;;;0.61;0.55;;;;;;;23.57;50.61;99180.63;1999220;81;20195;-78
2021/07/11 17:02:17;;;;;;;0.30;0.30;;;;;;;23.25;53.56;99182.53;1998123;78;20810;-78
2021/07/11 17:05:19;;;;;;;1.26;0.30;;;;;;;22.96;53.97;99176.28;2000211;81;20210;-78
2021/07/11 17:08:22;;;;;;;0.93;0.38;;;;;;;22.72;49.97;99175.03;1999734;81;20260;-78
2021/07/11 17:11:27;;;;;;;4.13;0.40;;;;;;;22.62;52.18;99177.34;1999313;81;20200;-78
2021/07/11 17:14:31;;;;;;;3.66;0.44;;;;;;;22.45;57.62;99177.47;1999592;81;20377;-78
2021/07/11 17:17:34;;;;;;;2.56;0.35;;;;;;;22.37;59.92;99179.69;2001769;78;20178;-77